Natalia, Texas
Current Conditions -  °F | °C
As of 4:55 AM on Sunday 23 Nov 2014 (Local Time) from KCVB Reporting Station
Clear Clear  
Wind Chill: 50°   Ceiling: Unl
Heat Index: 50°   Visibility: 10mi
Dew Point: 49°   Wind: 6mph
Humidity: 97%   Direction: 180°S
Pressure: 29.73"   Gusts: NA
Location:  29.19°N, 98.86°W
Report Text: KCVB 231055Z AUTO 18005KT 10SM CLR 10/10 A2973 RMK AO2 T01010097
Loading
Personal Weather Stations






























Interactive Weather Map New forecast layout! Learn more

10-Day Weather Forecast

Advertisements
Track Severe Weather on mobile